Time;durP1;ratioP1;P1;durP2;ratioP2;P2;SDS_P1;SDS_P2;PMS_P1;PMS_P2;Temp;Humidity;BMP_temperature;BMP_pressure;BME280_temperature;BME280_humidity;BME280_pressure;Samples;Min_cycle;Max_cycle;Signal;HPM_P1;HPM_P2
2023/07/12 00:00:29;;;;;;;12.75;9.52;;;;;;;20.27;100.00;99918.88;4908848;29;20200;-67
2023/07/12 00:02:57;;;;;;;14.57;9.63;;;;;;;20.34;100.00;99908.78;4908784;29;20223;-69
2023/07/12 00:05:27;;;;;;;15.20;9.98;;;;;;;20.42;100.00;99896.00;4910715;29;20646;-68
2023/07/12 00:07:54;;;;;;;12.40;9.38;;;;;;;20.39;100.00;99905.94;4906848;29;20204;-67
2023/07/12 00:10:26;;;;;;;14.30;10.27;;;;;;;20.43;100.00;99908.53;4909939;29;20208;-68
2023/07/12 00:12:53;;;;;;;14.20;10.20;;;;;;;20.45;100.00;99890.53;4928957;29;20223;-68
2023/07/12 00:15:24;;;;;;;14.27;9.95;;;;;;;20.50;100.00;99899.31;4925667;29;20230;-68
2023/07/12 00:17:52;;;;;;;15.52;10.35;;;;;;;20.54;100.00;99898.25;4917592;29;20218;-69
2023/07/12 00:20:33;;;;;;;13.90;9.98;;;;;;;20.54;100.00;99892.88;4914241;29;20202;-69
2023/07/12 00:23:00;;;;;;;14.60;10.32;;;;;;;20.58;100.00;99893.66;4914327;29;20227;-67
2023/07/12 00:25:33;;;;;;;14.93;10.65;;;;;;;20.63;100.00;99892.53;4921344;29;20211;-67
2023/07/12 00:28:00;;;;;;;12.60;9.60;;;;;;;20.70;100.00;99887.81;4925024;29;20849;-68
2023/07/12 00:30:32;;;;;;;15.50;10.15;;;;;;;20.70;100.00;99889.63;4922645;29;20755;-68
2023/07/12 00:33:02;;;;;;;14.88;9.77;;;;;;;20.72;100.00;99894.03;4916722;29;20259;-67
2023/07/12 00:35:31;;;;;;;12.48;9.85;;;;;;;20.76;100.00;99884.03;4921921;29;20215;-67
2023/07/12 00:37:59;;;;;;;15.52;10.30;;;;;;;20.76;100.00;99875.94;4926289;29;20217;-67
2023/07/12 00:40:41;;;;;;;15.02;10.50;;;;;;;20.78;100.00;99882.16;4919546;29;20215;-69
2023/07/12 00:43:28;;;;;;;19.52;10.23;;;;;;;20.75;100.00;99867.00;4912419;29;20203;-67
2023/07/12 00:45:56;;;;;;;11.80;9.27;;;;;;;20.72;100.00;99869.81;4919527;29;20202;-68
2023/07/12 00:48:23;;;;;;;13.48;9.52;;;;;;;20.81;100.00;99871.28;4923861;29;20853;-67
2023/07/12 00:50:49;;;;;;;15.75;9.65;;;;;;;20.85;100.00;99867.56;4913889;29;20199;-69
2023/07/12 00:53:20;;;;;;;13.45;9.52;;;;;;;20.86;100.00;99872.00;4909021;29;20642;-67
2023/07/12 00:56:03;;;;;;;15.80;9.32;;;;;;;20.89;100.00;99863.81;4907882;29;20238;-67
2023/07/12 00:58:45;;;;;;;11.68;9.10;;;;;;;20.89;100.00;99871.91;4907745;29;20279;-69
2023/07/12 01:01:13;;;;;;;12.90;9.52;;;;;;;20.92;100.00;99879.84;4906820;29;20540;-67
2023/07/12 01:03:43;;;;;;;12.90;9.75;;;;;;;20.92;100.00;99887.94;4908307;29;20208;-69
2023/07/12 01:06:14;;;;;;;14.20;9.40;;;;;;;20.95;100.00;99879.75;4905839;29;20200;-69
2023/07/12 01:08:41;;;;;;;13.60;9.88;;;;;;;20.95;100.00;99871.66;4907026;29;20215;-67
2023/07/12 01:11:16;;;;;;;14.40;9.18;;;;;;;20.80;100.00;99856.94;4907162;29;20215;-68
2023/07/12 01:13:48;;;;;;;12.25;8.57;;;;;;;21.01;100.00;99894.78;4909753;29;20680;-67
2023/07/12 01:16:18;;;;;;;14.80;8.70;;;;;;;21.00;100.00;99893.91;4907393;29;20227;-67
2023/07/12 01:18:45;;;;;;;10.73;8.15;;;;;;;20.98;100.00;99882.31;4907103;29;20211;-67
2023/07/12 01:21:15;;;;;;;14.60;8.65;;;;;;;20.99;100.00;99877.81;4912540;29;20239;-67
2023/07/12 01:23:42;;;;;;;11.05;8.32;;;;;;;20.94;100.00;99880.69;4916399;29;20291;-67
2023/07/12 01:26:18;;;;;;;12.15;8.52;;;;;;;20.97;100.00;99880.56;4919262;29;20199;-67
2023/07/12 01:28:47;;;;;;;12.20;9.10;;;;;;;20.95;100.00;99868.97;4913594;29;20204;-69
2023/07/12 01:31:14;;;;;;;11.80;8.98;;;;;;;20.95;100.00;99863.59;4915398;29;20231;-67
2023/07/12 01:33:40;;;;;;;12.57;8.73;;;;;;;21.01;100.00;99854.41;4912711;29;20227;-67
2023/07/12 01:36:07;;;;;;;12.38;8.98;;;;;;;20.92;100.00;99852.94;4913861;29;20242;-69
2023/07/12 01:38:33;;;;;;;13.48;8.82;;;;;;;20.88;100.00;99857.56;4919290;29;20195;-67
2023/07/12 01:40:59;;;;;;;14.68;8.40;;;;;;;20.93;100.00;99852.00;4918711;29;20211;-67
2023/07/12 01:43:26;;;;;;;13.32;8.85;;;;;;;20.91;100.00;99851.19;4913180;29;20211;-67
2023/07/12 01:45:53;;;;;;;16.70;8.43;;;;;;;20.97;100.00;99856.31;4919530;29;20562;-68
2023/07/12 01:48:19;;;;;;;11.68;8.60;;;;;;;20.96;100.00;99850.06;4923823;29;20667;-65
2023/07/12 01:50:46;;;;;;;12.88;9.00;;;;;;;21.00;100.00;99855.34;4921955;29;20663;-67
2023/07/12 01:53:12;;;;;;;12.68;8.35;;;;;;;21.05;100.00;99856.03;4915088;29;20200;-67
2023/07/12 01:55:38;;;;;;;11.00;8.65;;;;;;;20.99;100.00;99827.53;4908591;29;20211;-66
2023/07/12 01:58:05;;;;;;;17.77;10.02;;;;;;;21.01;100.00;99841.81;4907250;29;20519;-67
2023/07/12 02:00:31;;;;;;;13.55;8.60;;;;;;;20.99;100.00;99834.72;4905307;29;20211;-68
2023/07/12 02:02:58;;;;;;;11.80;8.27;;;;;;;20.95;100.00;99831.28;4907009;29;22032;-67
2023/07/12 02:05:24;;;;;;;12.73;8.73;;;;;;;20.93;100.00;99828.66;4906312;29;20207;-68
2023/07/12 02:07:52;;;;;;;12.63;8.02;;;;;;;20.87;100.00;99826.19;4906067;29;20208;-67
2023/07/12 02:10:20;;;;;;;13.57;9.05;;;;;;;20.82;100.00;99832.69;4906232;29;20219;-67
2023/07/12 02:12:46;;;;;;;13.38;8.48;;;;;;;20.85;100.00;99830.75;4906238;29;20727;-66
2023/07/12 02:15:14;;;;;;;11.05;8.15;;;;;;;20.82;100.00;99822.81;4911165;29;20314;-67
2023/07/12 02:17:40;;;;;;;13.10;9.65;;;;;;;20.88;100.00;99832.44;4906125;29;20643;-69
2023/07/12 02:20:09;;;;;;;12.82;9.02;;;;;;;20.87;100.00;99818.13;4905749;29;20203;-67
2023/07/12 02:22:38;;;;;;;13.55;9.23;;;;;;;20.95;100.00;99828.59;4909486;29;20237;-67
2023/07/12 02:25:05;;;;;;;12.98;9.20;;;;;;;21.02;100.00;99826.53;4916904;29;20205;-67
2023/07/12 02:27:31;;;;;;;11.90;8.90;;;;;;;21.02;100.00;99821.16;4917466;29;20204;-67
2023/07/12 02:29:58;;;;;;;13.77;8.65;;;;;;;21.07;100.00;99819.16;4924499;29;20703;-67
2023/07/12 02:32:26;;;;;;;12.70;8.82;;;;;;;21.09;100.00;99806.50;4917639;29;20306;-67
2023/07/12 02:34:53;;;;;;;11.48;8.70;;;;;;;21.16;100.00;99808.91;4909546;29;20704;-66
2023/07/12 02:37:19;;;;;;;11.32;8.50;;;;;;;21.15;100.00;99814.34;4917470;29;20203;-67
2023/07/12 02:39:46;;;;;;;13.40;8.50;;;;;;;21.18;100.00;99814.22;4911718;29;20218;-67
2023/07/12 02:42:12;;;;;;;14.38;8.65;;;;;;;21.23;100.00;99814.97;4923651;29;20219;-69
2023/07/12 02:44:39;;;;;;;11.57;8.23;;;;;;;21.24;100.00;99808.66;4919663;29;20203;-67
2023/07/12 02:47:10;;;;;;;12.45;8.68;;;;;;;21.21;100.00;99808.72;4918464;29;20199;-68
2023/07/12 02:49:38;;;;;;;13.73;8.57;;;;;;;21.20;100.00;99813.22;4918324;29;20219;-68
2023/07/12 02:52:06;;;;;;;15.43;9.50;;;;;;;21.17;100.00;99802.56;4915309;29;20311;-67
2023/07/12 02:54:33;;;;;;;12.65;8.75;;;;;;;21.16;100.00;99813.41;4915614;29;20667;-69
2023/07/12 02:57:00;;;;;;;14.00;9.45;;;;;;;21.20;100.00;99812.34;4905336;29;20751;-67
2023/07/12 02:59:27;;;;;;;14.98;8.98;;;;;;;21.20;100.00;99806.97;4904503;29;20196;-68
2023/07/12 03:01:54;;;;;;;13.10;9.27;;;;;;;21.18;100.00;99807.00;4904192;29;20795;-66
2023/07/12 03:04:21;;;;;;;11.15;8.30;;;;;;;21.15;100.00;99799.06;4907450;29;20279;-67
2023/07/12 03:06:48;;;;;;;12.38;9.20;;;;;;;21.20;100.00;99805.13;4906316;29;20299;-66
2023/07/12 03:09:15;;;;;;;13.70;8.60;;;;;;;21.16;100.00;99798.13;4905331;29;20199;-67
2023/07/12 03:11:45;;;;;;;15.60;9.68;;;;;;;21.19;100.00;99795.31;4904315;29;20226;-67
2023/07/12 03:14:14;;;;;;;12.10;9.43;;;;;;;21.17;100.00;99805.25;4908828;29;20207;-68
2023/07/12 03:16:41;;;;;;;12.18;8.50;;;;;;;21.16;100.00;99797.25;4907329;29;20267;-67
2023/07/12 03:19:07;;;;;;;16.27;9.50;;;;;;;21.15;100.00;99788.28;4905541;29;20203;-65
2023/07/12 03:21:34;;;;;;;14.45;9.38;;;;;;;21.15;100.00;99803.56;4905122;29;20728;-67
2023/07/12 03:24:01;;;;;;;11.98;8.77;;;;;;;21.20;100.00;99805.13;4906453;29;20256;-67
2023/07/12 03:26:28;;;;;;;12.05;8.52;;;;;;;21.20;100.00;99805.13;4905801;29;20250;-67
2023/07/12 03:28:55;;;;;;;12.30;9.75;;;;;;;21.21;100.00;99808.72;4903960;29;20211;-68
2023/07/12 03:31:22;;;;;;;13.57;9.50;;;;;;;21.16;100.00;99795.44;4906203;29;20588;-67
2023/07/12 03:33:49;;;;;;;16.05;8.57;;;;;;;21.19;100.00;99811.47;4905531;29;20199;-67
2023/07/12 03:36:15;;;;;;;19.33;10.60;;;;;;;21.21;100.00;99811.41;4903341;29;20313;-67
2023/07/12 03:38:42;;;;;;;13.02;8.20;;;;;;;21.19;100.00;99808.78;4904913;29;20230;-66
2023/07/12 03:41:10;;;;;;;12.32;8.63;;;;;;;21.15;100.00;99806.25;4905961;29;20224;-68
2023/07/12 03:43:37;;;;;;;15.30;8.85;;;;;;;21.19;100.00;99824.06;4905226;29;20672;-67
2023/07/12 03:46:04;;;;;;;12.05;8.70;;;;;;;21.20;100.00;99820.41;4905279;29;20290;-66
2023/07/12 03:48:31;;;;;;;15.27;9.07;;;;;;;21.20;100.00;99829.38;4905415;29;20290;-67
2023/07/12 03:50:57;;;;;;;15.02;9.13;;;;;;;21.23;100.00;99826.63;4905198;29;20256;-67
2023/07/12 03:53:26;;;;;;;15.65;9.18;;;;;;;21.27;100.00;99824.69;4908444;29;20206;-67
2023/07/12 03:55:58;;;;;;;11.07;8.57;;;;;;;21.30;100.00;99832.66;4911832;29;20242;-68
2023/07/12 03:58:29;;;;;;;14.93;9.50;;;;;;;21.32;100.00;99846.94;4909812;29;20214;-68
2023/07/12 04:00:55;;;;;;;14.20;9.82;;;;;;;21.31;100.00;99845.19;4909001;29;20706;-67
2023/07/12 04:03:22;;;;;;;11.90;8.43;;;;;;;21.23;100.00;99847.31;4907828;29;20199;-68
2023/07/12 04:05:51;;;;;;;12.95;9.02;;;;;;;21.21;100.00;99852.72;4908498;29;21615;-67
2023/07/12 04:08:19;;;;;;;12.23;8.43;;;;;;;21.22;100.00;99850.91;4908328;29;20208;-67
2023/07/12 04:10:50;;;;;;;11.68;8.55;;;;;;;21.24;100.00;99854.44;4911250;29;20203;-67
2023/07/12 04:13:17;;;;;;;13.88;8.63;;;;;;;21.31;100.00;99865.84;4909467;29;20265;-67
2023/07/12 04:15:43;;;;;;;14.38;8.90;;;;;;;21.32;100.00;99878.38;4907835;29;20226;-69
2023/07/12 04:18:09;;;;;;;11.45;8.90;;;;;;;21.38;100.00;99886.22;4909741;29;20231;-67
2023/07/12 04:20:38;;;;;;;17.00;9.32;;;;;;;21.37;100.00;99881.78;4914072;29;20206;-67
2023/07/12 04:23:05;;;;;;;14.15;8.85;;;;;;;21.41;100.00;99884.28;4954897;23;20740;-69
2023/07/12 04:25:32;;;;;;;15.27;9.25;;;;;;;21.45;100.00;99893.13;4934799;29;20201;-69
2023/07/12 04:27:59;;;;;;;11.70;9.05;;;;;;;21.42;100.00;99890.53;4935645;29;20195;-69
2023/07/12 04:30:25;;;;;;;17.80;9.30;;;;;;;21.43;100.00;99878.84;4933024;29;20203;-69
2023/07/12 04:32:52;;;;;;;12.65;8.30;;;;;;;21.43;100.00;99868.06;4934328;29;20782;-69
2023/07/12 04:35:19;;;;;;;12.98;7.68;;;;;;;21.44;100.00;99876.06;4935110;29;20597;-69
2023/07/12 04:37:50;;;;;;;10.25;7.55;;;;;;;21.45;100.00;99879.66;4936748;29;20242;-69
2023/07/12 04:40:17;;;;;;;14.75;8.00;;;;;;;21.43;100.00;99876.13;4932846;29;20209;-69
2023/07/12 04:42:45;;;;;;;14.00;7.68;;;;;;;21.32;100.00;99884.66;4935249;29;20640;-69
2023/07/12 04:45:13;;;;;;;12.02;7.80;;;;;;;21.28;100.00;99896.47;4932855;29;20191;-69
2023/07/12 04:47:40;;;;;;;12.18;7.40;;;;;;;21.43;100.00;99908.47;4935605;29;20282;-69
2023/07/12 04:50:08;;;;;;;11.07;7.15;;;;;;;21.65;100.00;99917.47;4932555;29;20195;-69
2023/07/12 04:52:35;;;;;;;11.32;7.47;;;;;;;21.67;100.00;99921.00;4932101;29;20226;-69
2023/07/12 04:55:03;;;;;;;11.25;7.38;;;;;;;21.77;100.00;99934.97;4930691;29;20229;-69
2023/07/12 04:57:30;;;;;;;11.02;7.10;;;;;;;21.86;100.00;99940.00;4931822;29;20298;-69
2023/07/12 04:59:57;;;;;;;11.95;7.20;;;;;;;21.93;100.00;99952.28;4940880;29;20289;-69
2023/07/12 05:02:24;;;;;;;11.38;6.93;;;;;;;21.84;100.00;99960.75;4936359;28;20707;-69
2023/07/12 05:04:50;;;;;;;12.90;6.55;;;;;;;21.83;100.00;99967.09;4932237;29;20251;-69
2023/07/12 05:07:16;;;;;;;10.63;6.95;;;;;;;21.77;100.00;99962.81;4932553;29;20659;-69
2023/07/12 05:09:44;;;;;;;11.18;7.53;;;;;;;21.78;100.00;99977.19;4932876;29;20202;-69
2023/07/12 05:12:11;;;;;;;13.60;7.30;;;;;;;21.73;100.00;99979.19;4936332;29;20222;-67
2023/07/12 05:14:37;;;;;;;13.70;7.90;;;;;;;21.61;100.00;99983.19;4920017;28;20302;-67
2023/07/12 05:17:05;;;;;;;12.50;7.60;;;;;;;21.64;100.00;99979.53;4926333;29;20199;-67
2023/07/12 05:19:32;;;;;;;8.85;6.68;;;;;;;21.65;100.00;99992.06;4931106;29;20223;-67
2023/07/12 05:21:58;;;;;;;16.15;7.88;;;;;;;21.59;100.00;100003.94;4929107;29;20230;-67
2023/07/12 05:24:24;;;;;;;16.73;7.75;;;;;;;21.68;100.00;100011.69;4938423;28;20207;-67
2023/07/12 05:26:56;;;;;;;13.73;7.47;;;;;;;21.78;100.00;100009.53;4926902;29;20199;-68
2023/07/12 05:29:22;;;;;;;15.07;8.15;;;;;;;21.99;100.00;100013.19;4925221;29;20604;-67
2023/07/12 05:31:49;;;;;;;11.70;7.78;;;;;;;22.08;100.00;100007.50;4929936;29;20227;-68
2023/07/12 05:34:16;;;;;;;12.20;8.55;;;;;;;22.20;100.00;100006.97;4931710;28;20226;-68
2023/07/12 05:36:42;;;;;;;14.88;7.38;;;;;;;22.14;100.00;100002.72;4930481;29;20318;-67
2023/07/12 05:39:09;;;;;;;11.77;7.00;;;;;;;22.16;100.00;100014.31;4931576;29;20574;-67
2023/07/12 05:41:35;;;;;;;12.23;8.05;;;;;;;22.10;100.00;100011.88;4924476;29;20580;-66
2023/07/12 05:44:01;;;;;;;12.80;8.00;;;;;;;22.30;100.00;100008.34;4924723;29;20206;-67
2023/07/12 05:46:28;;;;;;;14.57;7.15;;;;;;;22.53;100.00;100012.81;4930548;29;20254;-67
2023/07/12 05:48:54;;;;;;;13.95;7.63;;;;;;;22.81;100.00;100009.84;4926054;29;20286;-67
2023/07/12 05:51:21;;;;;;;12.68;7.47;;;;;;;22.97;100.00;100016.38;4927187;29;20598;-67
2023/07/12 05:53:48;;;;;;;9.95;6.20;;;;;;;23.29;100.00;100003.28;4928322;29;20671;-68
2023/07/12 05:56:14;;;;;;;11.60;5.57;;;;;;;23.84;100.00;100011.56;4928198;29;20230;-68
2023/07/12 05:58:41;;;;;;;4.20;2.22;;;;;;;24.18;89.29;100005.44;4932483;29;20222;-73
2023/07/12 06:01:08;;;;;;;4.85;1.92;;;;;;;23.89;83.98;100005.00;4931299;29;20198;-70
2023/07/12 06:03:34;;;;;;;2.70;1.83;;;;;;;23.82;84.71;100006.22;4928094;29;20227;-68
2023/07/12 06:06:05;;;;;;;4.05;2.05;;;;;;;23.36;86.38;100010.16;4930028;29;20199;-69
2023/07/12 06:08:32;;;;;;;3.65;2.20;;;;;;;22.78;88.54;100012.66;4928408;29;20290;-69
2023/07/12 06:10:58;;;;;;;3.47;1.88;;;;;;;22.21;90.28;100011.44;4923633;29;20206;-69
2023/07/12 06:13:25;;;;;;;6.63;2.10;;;;;;;22.01;95.69;100016.69;4912890;29;20258;-69
2023/07/12 06:15:51;;;;;;;3.55;2.10;;;;;;;21.99;100.00;100013.19;4931739;29;20218;-69
2023/07/12 06:18:18;;;;;;;3.72;2.33;;;;;;;22.00;100.00;100026.59;4934641;29;20206;-69
2023/07/12 06:20:45;;;;;;;2.78;2.40;;;;;;;21.98;100.00;100015.00;4931382;29;20297;-68
2023/07/12 06:23:12;;;;;;;5.60;2.25;;;;;;;21.96;99.60;100022.28;4919862;29;20269;-68
2023/07/12 06:25:38;;;;;;;2.90;2.17;;;;;;;22.02;100.00;100031.97;4929877;29;20230;-68
2023/07/12 06:28:04;;;;;;;2.85;2.28;;;;;;;21.95;97.40;100020.53;4931581;29;20294;-68
2023/07/12 06:30:31;;;;;;;3.63;2.40;;;;;;;22.03;98.13;100026.56;4926732;29;20209;-69
2023/07/12 06:32:58;;;;;;;4.80;2.75;;;;;;;22.09;95.73;100030.81;4923357;29;20222;-69
2023/07/12 06:35:24;;;;;;;3.75;2.33;;;;;;;22.17;95.88;100042.19;4929799;29;20254;-69
2023/07/12 06:37:51;;;;;;;3.30;2.20;;;;;;;22.27;94.96;100040.00;4931126;29;20301;-69
2023/07/12 06:40:17;;;;;;;2.67;2.40;;;;;;;22.40;94.82;100035.84;4933459;29;20202;-68
2023/07/12 06:42:43;;;;;;;3.70;2.38;;;;;;;22.49;93.59;100039.06;4927223;29;20223;-68
2023/07/12 06:45:10;;;;;;;6.05;2.53;;;;;;;22.49;94.45;100044.47;4916330;29;20199;-69
2023/07/12 06:47:37;;;;;;;5.03;2.50;;;;;;;22.50;93.15;100048.91;4939041;29;20233;-68
2023/07/12 06:50:04;;;;;;;5.63;2.65;;;;;;;22.39;93.54;100043.06;4932513;29;20199;-69
2023/07/12 06:52:30;;;;;;;4.38;2.70;;;;;;;22.31;92.08;100055.09;4929278;29;20223;-69
2023/07/12 06:54:57;;;;;;;3.50;2.80;;;;;;;22.36;95.05;100045.88;4932405;29;20206;-69
2023/07/12 06:57:23;;;;;;;4.05;2.72;;;;;;;22.47;90.62;100048.16;4933080;29;20280;-69
2023/07/12 06:59:49;;;;;;;4.00;2.72;;;;;;;22.63;88.39;100049.28;4932905;29;20209;-68
2023/07/12 07:02:16;;;;;;;4.90;2.95;;;;;;;22.69;87.77;100053.53;4934581;28;20219;-69
2023/07/12 07:04:42;;;;;;;4.53;3.22;;;;;;;22.86;86.29;100053.78;4933233;29;20203;-69
2023/07/12 07:07:09;;;;;;;4.07;2.80;;;;;;;23.00;85.62;100054.06;4929340;29;20198;-69
2023/07/12 07:09:38;;;;;;;4.38;2.67;;;;;;;23.25;83.57;100050.28;4935036;28;20714;-69
2023/07/12 07:12:06;;;;;;;5.32;2.70;;;;;;;23.77;78.90;100048.84;4934317;29;20226;-68
2023/07/12 07:14:33;;;;;;;3.50;2.40;;;;;;;25.36;67.95;100057.28;4931222;29;20198;-68
2023/07/12 07:16:59;;;;;;;4.13;2.33;;;;;;;27.19;60.92;100055.09;4930450;29;20222;-68
2023/07/12 07:19:26;;;;;;;3.53;2.25;;;;;;;28.29;56.81;100057.28;4931645;29;20222;-68
2023/07/12 07:21:52;;;;;;;3.08;2.20;;;;;;;29.54;51.18;100059.72;4930480;29;20234;-69
2023/07/12 07:24:19;;;;;;;2.47;2.00;;;;;;;30.48;47.12;100054.75;4929635;29;20283;-68
2023/07/12 07:26:45;;;;;;;2.60;2.03;;;;;;;30.46;47.30;100056.75;4934417;29;20198;-68
2023/07/12 07:29:12;;;;;;;3.20;2.13;;;;;;;31.38;45.16;100051.53;4941895;29;20232;-68
2023/07/12 07:31:38;;;;;;;2.53;1.88;;;;;;;31.90;43.18;100063.84;4936890;29;20219;-68
2023/07/12 07:34:04;;;;;;;5.25;2.15;;;;;;;32.17;42.03;100058.00;4933473;29;20206;-68
2023/07/12 07:36:31;;;;;;;4.53;2.15;;;;;;;32.47;41.04;100062.00;4933505;29;20254;-68
2023/07/12 07:38:57;;;;;;;2.85;2.08;;;;;;;33.34;39.84;100061.00;4933055;29;20234;-68
2023/07/12 07:41:24;;;;;;;3.63;2.10;;;;;;;33.89;39.00;100047.94;4933374;29;20210;-68
2023/07/12 07:43:50;;;;;;;2.75;2.00;;;;;;;34.19;37.29;100060.81;4935448;29;20618;-69
2023/07/12 07:46:17;;;;;;;3.40;2.08;;;;;;;34.67;37.68;100057.38;4937038;28;20209;-69
2023/07/12 07:48:43;;;;;;;3.35;2.10;;;;;;;34.84;37.12;100059.47;4931554;29;20262;-69
2023/07/12 07:51:13;;;;;;;4.30;1.98;;;;;;;34.76;37.16;100059.25;4934137;29;20199;-67
2023/07/12 07:53:40;;;;;;;4.25;2.25;;;;;;;34.51;38.52;100058.81;4937509;29;20195;-68
2023/07/12 07:56:07;;;;;;;4.63;2.30;;;;;;;34.52;38.73;100067.91;4931722;29;20285;-68
2023/07/12 07:58:35;;;;;;;4.38;2.47;;;;;;;34.14;38.88;100064.00;4936159;29;20210;-68
2023/07/12 08:01:01;;;;;;;4.40;2.75;;;;;;;33.97;39.80;100066.50;4937529;29;20199;-68
2023/07/12 08:03:27;;;;;;;4.45;2.58;;;;;;;33.81;40.45;100066.97;4935215;29;20781;-69
2023/07/12 08:06:03;;;;;;;3.63;2.47;;;;;;;34.43;38.98;100066.88;4938122;28;20210;-69
2023/07/12 08:08:30;;;;;;;5.13;2.08;;;;;;;35.07;37.66;100068.31;4936075;29;20285;-69
2023/07/12 08:10:57;;;;;;;2.92;2.63;;;;;;;34.43;38.85;100057.78;4932889;29;20944;-68
2023/07/12 08:13:24;;;;;;;7.47;2.60;;;;;;;33.69;39.23;100066.19;4932461;29;20219;-68
2023/07/12 08:15:54;;;;;;;2.42;1.92;;;;;;;33.85;39.35;100065.72;4933218;28;20250;-68
2023/07/12 08:18:21;;;;;;;2.75;2.30;;;;;;;33.97;39.77;100061.88;4934905;29;20253;-68
2023/07/12 08:20:47;;;;;;;2.80;2.30;;;;;;;33.87;39.82;100071.94;4932544;29;20273;-68
2023/07/12 08:23:14;;;;;;;4.55;2.35;;;;;;;33.58;40.34;100063.47;4934134;29;20286;-68
2023/07/12 08:25:40;;;;;;;5.47;2.55;;;;;;;33.08;41.62;100067.84;4933063;29;20285;-69
2023/07/12 08:28:07;;;;;;;4.00;2.40;;;;;;;32.53;42.29;100061.47;4932309;29;20198;-68
2023/07/12 08:30:35;;;;;;;2.55;2.10;;;;;;;31.61;45.00;100060.63;4931581;29;20683;-69
2023/07/12 08:33:02;;;;;;;4.65;2.10;;;;;;;30.99;44.60;100062.78;4932658;29;20384;-68
2023/07/12 08:35:28;;;;;;;3.45;2.50;;;;;;;31.04;46.44;100066.03;4933374;29;20217;-68
2023/07/12 08:37:57;;;;;;;3.10;2.03;;;;;;;30.63;46.56;100064.56;4932420;29;20217;-68
2023/07/12 08:40:25;;;;;;;3.38;2.30;;;;;;;30.67;46.63;100070.69;4931714;29;20206;-68
2023/07/12 08:42:52;;;;;;;4.97;2.20;;;;;;;30.63;48.06;100061.84;4931811;29;20230;-68
2023/07/12 08:45:30;;;;;;;4.53;2.20;;;;;;;30.84;47.91;100062.09;4936321;29;20638;-68
2023/07/12 08:48:01;;;;;;;6.15;2.47;;;;;;;30.51;47.01;100062.72;4933348;29;20588;-68
2023/07/12 08:50:37;;;;;;;3.85;2.65;;;;;;;30.23;48.44;100061.16;4931440;29;20686;-68
2023/07/12 08:53:05;;;;;;;4.13;2.10;;;;;;;30.12;47.80;100067.41;4932477;29;20223;-68
2023/07/12 08:55:33;;;;;;;4.80;2.10;;;;;;;29.82;49.62;100072.31;4933651;29;20210;-69
2023/07/12 08:58:16;;;;;;;4.57;2.35;;;;;;;29.78;48.91;100076.25;4932433;29;20652;-68
2023/07/12 09:00:43;;;;;;;5.68;1.92;;;;;;;29.68;50.87;100070.56;4929726;29;20207;-68
2023/07/12 09:03:09;;;;;;;3.83;1.92;;;;;;;29.58;50.05;100067.59;4930960;29;20237;-69
2023/07/12 09:05:35;;;;;;;3.53;1.77;;;;;;;29.68;49.15;100062.38;4936750;29;20578;-69
2023/07/12 09:08:11;;;;;;;5.78;2.03;;;;;;;29.67;49.39;100068.84;4940003;29;20203;-69
2023/07/12 09:10:46;;;;;;;4.53;1.88;;;;;;;29.61;49.71;100069.22;4935339;29;20209;-69
2023/07/12 09:13:14;;;;;;;2.28;2.08;;;;;;;29.67;49.37;100068.84;4928967;29;20315;-69
2023/07/12 09:15:46;;;;;;;3.70;2.15;;;;;;;29.82;49.58;100062.25;4928057;29;20199;-69
2023/07/12 09:18:33;;;;;;;2.95;2.00;;;;;;;30.12;47.40;100061.94;4933125;29;20203;-68
2023/07/12 09:21:12;;;;;;;3.00;2.25;;;;;;;30.23;47.80;100050.22;4931417;29;20202;-71
2023/07/12 09:23:40;;;;;;;2.72;1.92;;;;;;;29.88;48.07;100047.28;4932303;29;20214;-71
2023/07/12 09:26:17;;;;;;;4.47;2.38;;;;;;;29.86;48.41;100058.31;4932614;29;20282;-70
2023/07/12 09:28:43;;;;;;;3.95;2.40;;;;;;;29.55;49.06;100064.22;4930344;29;20290;-70
2023/07/12 09:31:12;;;;;;;4.28;1.95;;;;;;;29.63;46.90;100056.38;4931625;29;20286;-70
2023/07/12 09:33:40;;;;;;;3.03;1.73;;;;;;;29.93;47.43;100062.34;4932355;29;20319;-70
2023/07/12 09:36:07;;;;;;;4.20;2.20;;;;;;;29.71;47.20;100062.16;4926574;29;21254;-70
2023/07/12 09:38:36;;;;;;;2.40;2.00;;;;;;;29.40;48.37;100073.44;4927835;29;20198;-69
2023/07/12 09:41:15;;;;;;;4.57;2.10;;;;;;;29.07;50.20;100073.91;4930751;29;20726;-69
2023/07/12 09:43:47;;;;;;;2.63;2.22;;;;;;;28.49;51.05;100061.44;4927590;29;20199;-72
2023/07/12 09:46:37;;;;;;;2.22;1.73;;;;;;;28.72;50.60;100066.22;4929667;29;20750;-66
2023/07/12 09:49:13;;;;;;;2.10;1.90;;;;;;;29.58;48.99;100070.31;4945149;28;20278;-68
2023/07/12 09:52:00;;;;;;;3.78;2.17;;;;;;;30.04;46.48;100068.97;4928690;29;20305;-68
2023/07/12 09:54:40;;;;;;;4.22;1.77;;;;;;;30.22;44.15;100054.81;4931932;29;20295;-68
2023/07/12 09:57:17;;;;;;;2.45;1.80;;;;;;;30.15;43.72;100041.72;4931739;28;20214;-68
2023/07/12 09:59:58;;;;;;;4.45;1.98;;;;;;;29.68;44.79;100054.19;4938139;29;20553;-68
2023/07/12 10:02:44;;;;;;;5.13;1.92;;;;;;;29.72;45.25;100066.63;4931160;29;20227;-67
2023/07/12 10:05:15;;;;;;;3.40;2.05;;;;;;;29.26;46.06;100067.09;4926674;29;20293;-67
2023/07/12 10:07:55;;;;;;;1.83;1.60;;;;;;;29.44;46.98;100073.16;4928788;29;20195;-68
2023/07/12 10:10:45;;;;;;;5.28;1.92;;;;;;;29.10;45.77;100084.59;4935720;29;20486;-67
2023/07/12 10:13:36;;;;;;;4.35;1.75;;;;;;;29.69;45.51;100077.78;4938381;29;20307;-68
2023/07/12 10:16:09;;;;;;;2.38;1.55;;;;;;;30.01;42.69;100069.13;4931808;29;20258;-67
2023/07/12 10:18:37;;;;;;;3.53;2.35;;;;;;;30.68;41.55;100066.97;4933256;29;20230;-68
2023/07/12 10:21:05;;;;;;;3.08;2.22;;;;;;;30.97;41.00;100059.28;4930821;29;20195;-67
2023/07/12 10:23:43;;;;;;;3.15;1.52;;;;;;;30.99;39.03;100063.66;4968299;23;20234;-68
2023/07/12 10:26:14;;;;;;;1.95;1.35;;;;;;;31.00;38.33;100064.53;4949338;29;20201;-70
2023/07/12 10:28:45;;;;;;;2.45;1.50;;;;;;;30.52;40.35;100076.28;4950950;29;20198;-69
2023/07/12 10:31:36;;;;;;;2.80;1.70;;;;;;;30.16;40.31;100070.78;4948631;29;20292;-70
2023/07/12 10:34:15;;;;;;;3.83;1.45;;;;;;;30.02;40.46;100073.59;4923963;28;20264;-71
2023/07/12 10:36:43;;;;;;;2.25;1.35;;;;;;;30.06;40.83;100076.06;4927351;29;20337;-69
2023/07/12 10:39:10;;;;;;;2.58;1.50;;;;;;;29.85;40.55;100081.16;4946403;28;20206;-69
2023/07/12 10:41:51;;;;;;;2.95;1.45;;;;;;;29.70;40.81;100084.13;4948412;28;20202;-70
2023/07/12 10:44:22;;;;;;;3.65;1.30;;;;;;;29.62;41.96;100077.34;4944311;28;20240;-68
2023/07/12 10:46:54;;;;;;;2.30;1.40;;;;;;;29.49;42.63;100084.63;4946119;28;20587;-69
2023/07/12 10:49:40;;;;;;;2.13;1.25;;;;;;;29.39;43.43;100074.44;4948232;28;20229;-69
2023/07/12 10:52:10;;;;;;;3.42;1.45;;;;;;;29.57;42.02;100079.50;4944615;28;20218;-70
2023/07/12 10:54:36;;;;;;;2.03;1.20;;;;;;;29.89;40.88;100071.75;4944593;28;20265;-69
2023/07/12 10:57:23;;;;;;;1.83;1.33;;;;;;;30.21;40.00;100068.59;4952512;28;20240;-69
2023/07/12 11:00:29;;;;;;;2.88;1.40;;;;;;;29.98;39.78;100062.03;4949174;28;20568;-69
2023/07/12 11:03:15;;;;;;;1.98;1.30;;;;;;;29.97;40.39;100068.47;4942557;28;20241;-71
2023/07/12 11:05:57;;;;;;;1.80;1.40;;;;;;;30.26;38.78;100066.41;4947066;28;20217;-70
2023/07/12 11:08:30;;;;;;;2.92;1.60;;;;;;;30.17;39.67;100065.22;4932127;29;20217;-69
2023/07/12 11:11:11;;;;;;;3.50;1.67;;;;;;;30.20;39.24;100058.66;4950264;28;20198;-69
2023/07/12 11:13:46;;;;;;;3.72;1.90;;;;;;;30.62;39.62;100057.38;4950025;28;20221;-69
2023/07/12 11:16:18;;;;;;;4.35;1.42;;;;;;;31.01;38.64;100058.06;4945689;28;20201;-70
2023/07/12 11:18:54;;;;;;;2.30;1.40;;;;;;;30.42;38.13;100060.66;4943802;28;20635;-70
2023/07/12 11:21:45;;;;;;;3.03;1.13;;;;;;;30.08;39.79;100060.44;4949285;28;20253;-71
2023/07/12 11:24:23;;;;;;;1.52;1.33;;;;;;;30.07;39.05;100058.69;4949116;28;20209;-68
2023/07/12 11:26:57;;;;;;;4.45;1.30;;;;;;;29.94;38.94;100060.50;4949595;28;20226;-67
2023/07/12 11:29:30;;;;;;;1.63;1.20;;;;;;;30.27;39.62;100059.06;4951229;28;20264;-70